Time;durP1;ratioP1;P1;durP2;ratioP2;P2;SDS_P1;SDS_P2;PMS_P1;PMS_P2;Temp;Humidity;BMP_temperature;BMP_pressure;BME280_temperature;BME280_humidity;BME280_pressure;Samples;Min_cycle;Max_cycle;Signal;HPM_P1;HPM_P2
2022/05/29 00:02:09;;;;;;;12.27;2.10;;;;;;;;;;5013697;28;92502;-73
2022/05/29 00:04:36;;;;;;;13.90;2.30;;;;;;;;;;4996875;28;94867;-73
2022/05/29 00:07:03;;;;;;;8.35;2.53;;;;;;;;;;5013645;28;92796;-73
2022/05/29 00:09:38;;;;;;;7.82;2.15;;;;;;;;;;5011476;28;93711;-73
2022/05/29 00:12:05;;;;;;;13.55;2.83;;;;;;;;;;5000038;28;93789;-72
2022/05/29 00:14:32;;;;;;;10.05;1.88;;;;;;;;;;5011320;28;93931;-72
2022/05/29 00:16:58;;;;;;;11.73;1.90;;;;;;;;;;5014422;28;93347;-72
2022/05/29 00:19:25;;;;;;;13.13;3.05;;;;;;;;;;5011478;28;93557;-72
2022/05/29 00:21:51;;;;;;;10.45;2.22;;;;;;;;;;5011618;28;92826;-74
2022/05/29 00:24:18;;;;;;;11.90;2.17;;;;;;;;;;5025664;28;92432;-73
2022/05/29 00:26:44;;;;;;;13.23;2.38;;;;;;;;;;5036975;28;93726;-73
2022/05/29 00:29:10;;;;;;;14.45;3.08;;;;;;;;;;5007577;28;94910;-72
2022/05/29 00:31:36;;;;;;;8.35;2.05;;;;;;;;;;5006982;28;92521;-72
2022/05/29 00:34:03;;;;;;;11.43;2.78;;;;;;;;;;5012971;28;92530;-73
2022/05/29 00:36:32;;;;;;;9.88;2.30;;;;;;;;;;5013417;28;94783;-72
2022/05/29 00:38:58;;;;;;;13.45;2.67;;;;;;;;;;5012211;28;94010;-72
2022/05/29 00:41:30;;;;;;;11.10;2.50;;;;;;;;;;5012055;28;92523;-72
2022/05/29 00:44:16;;;;;;;11.05;2.22;;;;;;;;;;5008108;28;93224;-73
2022/05/29 00:46:48;;;;;;;11.77;2.80;;;;;;;;;;5012198;28;92556;-73
2022/05/29 00:49:15;;;;;;;10.55;2.42;;;;;;;;;;4995615;28;92476;-73
2022/05/29 00:51:45;;;;;;;16.33;2.25;;;;;;;;;;5012482;28;93816;-73
2022/05/29 00:54:12;;;;;;;8.05;2.67;;;;;;;;;;5002355;28;95055;-73
2022/05/29 00:56:38;;;;;;;9.60;2.22;;;;;;;;;;5013978;28;95952;-73
2022/05/29 00:59:07;;;;;;;13.85;2.28;;;;;;;;;;4997051;28;93246;-72
2022/05/29 01:01:34;;;;;;;9.38;2.40;;;;;;;;;;4999652;28;92793;-72
2022/05/29 01:04:00;;;;;;;14.95;2.35;;;;;;;;;;5017277;28;93128;-72
2022/05/29 01:06:28;;;;;;;13.73;2.70;;;;;;;;;;4998361;28;93930;-72
2022/05/29 01:08:55;;;;;;;11.13;2.45;;;;;;;;;;5015308;28;92480;-72
2022/05/29 01:11:34;;;;;;;15.68;2.80;;;;;;;;;;5000483;28;93429;-72
2022/05/29 01:14:07;;;;;;;12.50;2.58;;;;;;;;;;5015749;28;92536;-72
2022/05/29 01:16:57;;;;;;;14.93;3.00;;;;;;;;;;5014512;28;93275;-72
2022/05/29 01:19:36;;;;;;;14.38;2.80;;;;;;;;;;4996277;28;95820;-72
2022/05/29 01:22:08;;;;;;;11.63;2.20;;;;;;;;;;5009857;28;93426;-72
2022/05/29 01:24:37;;;;;;;13.98;2.33;;;;;;;;;;5019363;28;94089;-73
2022/05/29 01:27:10;;;;;;;6.43;2.03;;;;;;;;;;5013698;28;93506;-72
2022/05/29 01:29:45;;;;;;;9.38;2.72;;;;;;;;;;4997332;28;92508;-73
2022/05/29 01:32:23;;;;;;;13.00;2.30;;;;;;;;;;5019019;28;93451;-72
2022/05/29 01:34:54;;;;;;;10.75;2.35;;;;;;;;;;4991299;28;93275;-72
2022/05/29 01:37:41;;;;;;;10.65;2.00;;;;;;;;;;5017197;28;94764;-72
2022/05/29 01:40:21;;;;;;;11.68;3.08;;;;;;;;;;5015480;28;93400;-73
2022/05/29 01:42:50;;;;;;;15.25;2.83;;;;;;;;;;5015388;28;92580;-73
2022/05/29 01:45:16;;;;;;;14.85;2.80;;;;;;;;;;5012492;28;94919;-72
2022/05/29 01:47:44;;;;;;;12.82;3.30;;;;;;;;;;5016299;28;93290;-72
2022/05/29 01:50:14;;;;;;;17.15;3.13;;;;;;;;;;5009626;28;92631;-73
2022/05/29 01:52:49;;;;;;;9.20;2.90;;;;;;;;;;4998380;28;93682;-73
2022/05/29 01:55:20;;;;;;;11.25;3.22;;;;;;;;;;5016527;28;93641;-73
2022/05/29 01:57:50;;;;;;;12.18;2.58;;;;;;;;;;5014004;28;93035;-73
2022/05/29 02:00:18;;;;;;;13.45;2.17;;;;;;;;;;5008771;28;93894;-73
2022/05/29 02:02:44;;;;;;;15.43;2.95;;;;;;;;;;4999131;28;91890;-73
2022/05/29 02:05:14;;;;;;;12.85;2.60;;;;;;;;;;5014987;28;92420;-73
2022/05/29 02:07:49;;;;;;;9.80;2.25;;;;;;;;;;5015974;28;93300;-72
2022/05/29 02:10:31;;;;;;;12.68;2.55;;;;;;;;;;5011069;28;95112;-72
2022/05/29 02:13:10;;;;;;;13.02;2.63;;;;;;;;;;5015246;28;95614;-73
2022/05/29 02:15:49;;;;;;;11.23;2.40;;;;;;;;;;5015102;28;93460;-73
2022/05/29 02:18:20;;;;;;;8.65;2.50;;;;;;;;;;5019221;28;92392;-73
2022/05/29 02:20:49;;;;;;;13.18;3.03;;;;;;;;;;5004295;28;94547;-73
2022/05/29 02:23:17;;;;;;;7.72;2.40;;;;;;;;;;5015855;28;92510;-73
2022/05/29 02:25:45;;;;;;;18.60;3.05;;;;;;;;;;5010599;28;93062;-73
2022/05/29 02:28:15;;;;;;;11.82;2.75;;;;;;;;;;5012846;28;93519;-73
2022/05/29 02:30:50;;;;;;;8.07;2.53;;;;;;;;;;4998512;28;92507;-74
2022/05/29 02:33:28;;;;;;;9.93;2.67;;;;;;;;;;5001233;28;92719;-73
2022/05/29 02:36:19;;;;;;;13.23;2.50;;;;;;;;;;5012727;28;95938;-74
2022/05/29 02:39:11;;;;;;;9.10;2.28;;;;;;;;;;5009611;28;94169;-74
2022/05/29 02:42:01;;;;;;;9.98;2.35;;;;;;;;;;4986555;28;93732;-74
2022/05/29 02:44:37;;;;;;;7.93;2.83;;;;;;;;;;5016012;28;92427;-74
2022/05/29 02:47:09;;;;;;;14.27;2.97;;;;;;;;;;5015386;28;93223;-74
2022/05/29 02:49:51;;;;;;;9.38;2.20;;;;;;;;;;4996661;28;94406;-74
2022/05/29 02:52:17;;;;;;;11.90;2.47;;;;;;;;;;5011457;28;92456;-73
2022/05/29 02:54:44;;;;;;;10.25;2.05;;;;;;;;;;5008644;28;93807;-74
2022/05/29 02:57:15;;;;;;;8.60;1.88;;;;;;;;;;5010731;28;93827;-72
2022/05/29 02:59:50;;;;;;;4.85;1.88;;;;;;;;;;5012214;28;92522;-73
2022/05/29 03:02:21;;;;;;;6.10;1.80;;;;;;;;;;4992076;28;95018;-74
2022/05/29 03:05:04;;;;;;;6.50;1.63;;;;;;;;;;5000613;28;93725;-74
2022/05/29 03:07:46;;;;;;;13.18;2.22;;;;;;;;;;5014229;28;93190;-73
2022/05/29 03:10:25;;;;;;;8.57;2.20;;;;;;;;;;5015256;28;92698;-73
2022/05/29 03:12:52;;;;;;;4.60;1.47;;;;;;;;;;4993878;28;92617;-74
2022/05/29 03:15:21;;;;;;;8.40;1.80;;;;;;;;;;5014125;28;92967;-73
2022/05/29 03:17:58;;;;;;;8.82;2.13;;;;;;;;;;5014119;28;93502;-74
2022/05/29 03:20:34;;;;;;;3.30;1.50;;;;;;;;;;4998078;28;91710;-73
2022/05/29 03:23:07;;;;;;;11.40;1.90;;;;;;;;;;5016177;28;93631;-73
2022/05/29 03:25:48;;;;;;;6.70;1.27;;;;;;;;;;5017894;28;93298;-73
2022/05/29 03:28:22;;;;;;;6.43;1.42;;;;;;;;;;5016920;28;94796;-73
2022/05/29 03:30:49;;;;;;;3.53;1.15;;;;;;;;;;5008064;28;93599;-73
2022/05/29 03:33:16;;;;;;;3.65;1.10;;;;;;;;;;4979278;28;92401;-73
2022/05/29 03:36:00;;;;;;;5.10;1.25;;;;;;;;;;5010743;28;93350;-72
2022/05/29 03:38:26;;;;;;;3.40;0.90;;;;;;;;;;5014359;28;93493;-73
2022/05/29 03:40:52;;;;;;;2.80;0.95;;;;;;;;;;5015314;28;92442;-72
2022/05/29 03:43:18;;;;;;;7.25;1.33;;;;;;;;;;5014546;28;92839;-72
2022/05/29 03:45:45;;;;;;;5.90;1.55;;;;;;;;;;5015299;28;95540;-73
2022/05/29 03:48:11;;;;;;;3.25;1.20;;;;;;;;;;5016498;28;92467;-72
2022/05/29 03:50:37;;;;;;;4.57;1.20;;;;;;;;;;4996130;28;94008;-72
2022/05/29 03:53:04;;;;;;;4.93;1.10;;;;;;;;;;5012730;28;95413;-73
2022/05/29 03:55:31;;;;;;;8.60;1.45;;;;;;;;;;5014705;28;95496;-73
2022/05/29 03:57:57;;;;;;;3.33;1.30;;;;;;;;;;5005525;28;93562;-73
2022/05/29 04:00:24;;;;;;;4.43;1.05;;;;;;;;;;5013550;28;92497;-73
2022/05/29 04:02:51;;;;;;;2.22;0.93;;;;;;;;;;4996222;28;93638;-73
2022/05/29 04:05:21;;;;;;;3.78;0.80;;;;;;;;;;5012267;28;94282;-73
2022/05/29 04:13:19;;;;;;;4.20;1.52;;;;;;;;;;5014385;28;92642;-72
2022/05/29 04:15:46;;;;;;;3.60;1.15;;;;;;;;;;5013166;28;93128;-72
2022/05/29 04:18:13;;;;;;;4.32;1.05;;;;;;;;;;5008094;28;95848;-73
2022/05/29 04:20:40;;;;;;;2.50;1.10;;;;;;;;;;4996143;28;92572;-73
2022/05/29 04:23:06;;;;;;;4.75;1.38;;;;;;;;;;5016399;28;93307;-73
2022/05/29 04:25:32;;;;;;;4.18;1.40;;;;;;;;;;5009286;28;94912;-72
2022/05/29 04:27:59;;;;;;;3.28;1.30;;;;;;;;;;5012994;28;92657;-73
2022/05/29 04:30:25;;;;;;;4.65;1.90;;;;;;;;;;5013967;28;93346;-73
2022/05/29 04:33:00;;;;;;;7.90;1.75;;;;;;;;;;5016725;28;93603;-73
2022/05/29 04:35:27;;;;;;;6.35;1.98;;;;;;;;;;5014684;28;93284;-72
2022/05/29 04:37:54;;;;;;;5.57;1.50;;;;;;;;;;5009412;28;93545;-73
2022/05/29 04:40:20;;;;;;;3.15;1.27;;;;;;;;;;5017153;28;92481;-72
2022/05/29 04:42:47;;;;;;;6.97;1.52;;;;;;;;;;4994496;28;94757;-73
2022/05/29 04:45:13;;;;;;;7.00;1.90;;;;;;;;;;4997235;28;93974;-72
2022/05/29 04:47:39;;;;;;;6.22;1.80;;;;;;;;;;5017477;28;92409;-74
2022/05/29 04:50:07;;;;;;;8.65;2.35;;;;;;;;;;5016637;28;93434;-73
2022/05/29 04:52:34;;;;;;;8.00;2.05;;;;;;;;;;4999778;28;94477;-72
2022/05/29 04:55:00;;;;;;;5.18;2.00;;;;;;;;;;5020399;28;92499;-73
2022/05/29 04:57:26;;;;;;;5.65;2.05;;;;;;;;;;5015893;28;93500;-73
2022/05/29 04:59:52;;;;;;;8.07;2.63;;;;;;;;;;5013883;28;91947;-73
2022/05/29 05:02:19;;;;;;;8.93;2.40;;;;;;;;;;5004793;28;92721;-73
2022/05/29 05:04:45;;;;;;;6.95;2.40;;;;;;;;;;4995756;28;94482;-73
2022/05/29 05:07:11;;;;;;;8.45;2.40;;;;;;;;;;5015708;28;94835;-73
2022/05/29 05:09:38;;;;;;;14.32;2.97;;;;;;;;;;5014902;28;95858;-73
2022/05/29 05:12:04;;;;;;;14.85;2.92;;;;;;;;;;4995490;28;93476;-73
2022/05/29 05:14:30;;;;;;;14.10;2.67;;;;;;;;;;4995678;28;92904;-72
2022/05/29 05:16:57;;;;;;;9.52;2.60;;;;;;;;;;5020394;28;94273;-72
2022/05/29 05:19:23;;;;;;;7.40;2.33;;;;;;;;;;5016277;28;92565;-72
2022/05/29 05:21:50;;;;;;;14.02;3.13;;;;;;;;;;5016919;28;92498;-72
2022/05/29 05:24:16;;;;;;;7.93;2.67;;;;;;;;;;5012165;28;95432;-73
2022/05/29 05:26:43;;;;;;;8.93;2.55;;;;;;;;;;5012469;28;92539;-72
2022/05/29 05:29:09;;;;;;;6.93;2.78;;;;;;;;;;5008892;28;93412;-72
2022/05/29 05:31:36;;;;;;;7.18;2.78;;;;;;;;;;5001256;28;96226;-73
2022/05/29 05:34:02;;;;;;;11.20;2.92;;;;;;;;;;5014604;28;92932;-72
2022/05/29 05:36:29;;;;;;;9.20;2.45;;;;;;;;;;5016956;28;93309;-73
2022/05/29 05:38:55;;;;;;;7.80;2.60;;;;;;;;;;5000053;28;93099;-72
2022/05/29 05:41:22;;;;;;;10.32;2.90;;;;;;;;;;5012727;28;93259;-73
2022/05/29 05:43:48;;;;;;;7.60;2.30;;;;;;;;;;5015681;28;93203;-72
2022/05/29 05:46:15;;;;;;;12.70;3.13;;;;;;;;;;5015546;28;92985;-72
2022/05/29 05:48:43;;;;;;;11.15;2.88;;;;;;;;;;5015969;28;93070;-73
2022/05/29 05:51:10;;;;;;;7.10;2.50;;;;;;;;;;5015183;28;92512;-73
2022/05/29 05:53:36;;;;;;;8.98;2.03;;;;;;;;;;5009340;28;92393;-73
2022/05/29 05:56:14;;;;;;;9.02;2.10;;;;;;;;;;5010566;28;95175;-73
2022/05/29 05:58:40;;;;;;;5.65;1.77;;;;;;;;;;5016442;28;93618;-73
2022/05/29 06:01:09;;;;;;;7.80;1.88;;;;;;;;;;4996909;28;93714;-73
2022/05/29 06:03:35;;;;;;;7.07;2.10;;;;;;;;;;5012515;28;93501;-73
2022/05/29 06:06:02;;;;;;;10.80;1.95;;;;;;;;;;4998455;28;92640;-73
2022/05/29 06:08:28;;;;;;;9.30;2.08;;;;;;;;;;5013626;28;93082;-73
2022/05/29 06:10:55;;;;;;;9.02;1.98;;;;;;;;;;4996380;28;94043;-73
2022/05/29 06:13:21;;;;;;;11.02;2.40;;;;;;;;;;5002853;28;91635;-72
2022/05/29 06:15:48;;;;;;;7.80;1.80;;;;;;;;;;5015701;28;92386;-72
2022/05/29 06:18:15;;;;;;;8.07;2.28;;;;;;;;;;5014506;28;94405;-72
2022/05/29 06:20:42;;;;;;;9.48;2.10;;;;;;;;;;5016669;28;94854;-72
2022/05/29 06:23:08;;;;;;;6.90;2.25;;;;;;;;;;5009449;28;93309;-72
2022/05/29 06:25:35;;;;;;;9.68;2.55;;;;;;;;;;5018241;28;92645;-72
2022/05/29 06:28:01;;;;;;;8.38;2.42;;;;;;;;;;5010022;28;93806;-73
2022/05/29 06:30:28;;;;;;;10.88;2.35;;;;;;;;;;5009514;28;93630;-72
2022/05/29 06:32:55;;;;;;;9.43;2.13;;;;;;;;;;4997469;28;92677;-72
2022/05/29 06:35:21;;;;;;;9.88;2.35;;;;;;;;;;5016561;28;92434;-72
2022/05/29 06:37:47;;;;;;;8.90;2.55;;;;;;;;;;5015673;28;92803;-73
2022/05/29 06:40:14;;;;;;;7.72;2.17;;;;;;;;;;4997939;28;92462;-73
2022/05/29 06:42:40;;;;;;;12.07;2.38;;;;;;;;;;4989042;28;93598;-72
2022/05/29 06:45:08;;;;;;;9.57;2.50;;;;;;;;;;5010926;28;94881;-73
2022/05/29 06:47:35;;;;;;;11.77;2.60;;;;;;;;;;4996838;28;95640;-72
2022/05/29 06:50:02;;;;;;;13.30;2.53;;;;;;;;;;5015543;28;93277;-72
2022/05/29 06:52:32;;;;;;;11.68;2.35;;;;;;;;;;5000793;28;92420;-73
2022/05/29 06:54:59;;;;;;;9.63;2.90;;;;;;;;;;5010002;28;93132;-72
2022/05/29 06:57:40;;;;;;;17.20;2.88;;;;;;;;;;5009763;28;95374;-72
2022/05/29 07:08:27;;;;;;;18.25;2.92;;;;;;;;;;5014632;28;92865;-72
2022/05/29 07:10:54;;;;;;;9.60;2.63;;;;;;;;;;4994521;28;94862;-72
2022/05/29 07:13:20;;;;;;;8.82;2.40;;;;;;;;;;5012376;28;92532;-72
2022/05/29 07:15:47;;;;;;;12.35;2.38;;;;;;;;;;5011081;28;93740;-72
2022/05/29 07:18:13;;;;;;;11.40;2.53;;;;;;;;;;5015295;28;94519;-73
2022/05/29 07:20:39;;;;;;;8.50;2.05;;;;;;;;;;5014981;28;92566;-72
2022/05/29 07:23:06;;;;;;;10.90;2.03;;;;;;;;;;5011738;28;92965;-73
2022/05/29 07:25:32;;;;;;;13.45;2.22;;;;;;;;;;5006506;28;94636;-73
2022/05/29 07:27:58;;;;;;;12.02;2.40;;;;;;;;;;5011595;28;91735;-73
2022/05/29 07:30:24;;;;;;;12.82;2.22;;;;;;;;;;4996876;28;93589;-73
2022/05/29 07:32:51;;;;;;;13.75;3.15;;;;;;;;;;4996479;28;92891;-72
2022/05/29 07:35:17;;;;;;;13.30;2.78;;;;;;;;;;4994280;28;95249;-72
2022/05/29 07:37:43;;;;;;;8.45;1.70;;;;;;;;;;5012300;28;92466;-72
2022/05/29 07:40:10;;;;;;;12.50;2.22;;;;;;;;;;5014387;28;92423;-72
2022/05/29 07:45:22;;;;;;;7.30;1.70;;;;;;;;;;5014394;28;93748;-72
2022/05/29 07:47:48;;;;;;;9.35;1.70;;;;;;;;;;5014590;28;92414;-72
2022/05/29 07:50:18;;;;;;;9.70;1.73;;;;;;;;;;5013534;28;93336;-72
2022/05/29 07:52:45;;;;;;;8.93;1.90;;;;;;;;;;4996008;28;91767;-72
2022/05/29 07:55:11;;;;;;;8.75;1.60;;;;;;;;;;5010255;28;92502;-72
2022/05/29 07:57:37;;;;;;;10.73;1.92;;;;;;;;;;5003404;28;93801;-72
2022/05/29 08:00:05;;;;;;;8.75;1.35;;;;;;;;;;4994618;28;94854;-72
2022/05/29 08:02:34;;;;;;;11.65;1.90;;;;;;;;;;5011999;28;95587;-71
2022/05/29 08:05:02;;;;;;;9.50;1.60;;;;;;;;;;5010682;28;93477;-73
2022/05/29 08:07:29;;;;;;;14.65;2.05;;;;;;;;;;5006172;28;92656;-72
2022/05/29 08:09:55;;;;;;;8.30;1.63;;;;;;;;;;5016500;28;93220;-72
2022/05/29 08:12:22;;;;;;;7.43;1.48;;;;;;;;;;4995053;28;92799;-73
2022/05/29 08:14:54;;;;;;;6.13;1.40;;;;;;;;;;5013259;28;93187;-72
2022/05/29 08:17:20;;;;;;;6.28;1.27;;;;;;;;;;5014226;28;92600;-72
2022/05/29 08:19:47;;;;;;;8.35;2.70;;;;;;;;;;4996034;28;93182;-72
2022/05/29 08:22:13;;;;;;;8.13;2.15;;;;;;;;;;4996277;28;93193;-72
2022/05/29 08:32:58;;;;;;;6.60;1.50;;;;;;;;;;5008856;28;93506;-72
2022/05/29 08:35:24;;;;;;;7.68;1.40;;;;;;;;;;5008415;28;92877;-72
2022/05/29 08:37:50;;;;;;;6.00;1.33;;;;;;;;;;5008267;28;93481;-72
2022/05/29 08:40:17;;;;;;;8.38;1.50;;;;;;;;;;5013839;28;92651;-73
2022/05/29 08:42:43;;;;;;;13.23;2.20;;;;;;;;;;5013589;28;93173;-72
2022/05/29 08:45:12;;;;;;;10.65;1.55;;;;;;;;;;4996020;28;92720;-72
2022/05/29 08:47:39;;;;;;;12.20;1.38;;;;;;;;;;5013271;28;92423;-73
2022/05/29 08:50:06;;;;;;;7.20;1.88;;;;;;;;;;5010924;28;94950;-73
2022/05/29 08:52:50;;;;;;;4.95;0.95;;;;;;;;;;5010225;28;93589;-73
2022/05/29 08:55:35;;;;;;;7.43;1.38;;;;;;;;;;5012397;28;94108;-73
2022/05/29 08:58:20;;;;;;;3.95;1.20;;;;;;;;;;5001768;28;93312;-73
2022/05/29 09:01:06;;;;;;;8.55;1.50;;;;;;;;;;5010547;28;92648;-73
2022/05/29 09:03:51;;;;;;;5.25;1.08;;;;;;;;;;5013119;28;92903;-72
2022/05/29 09:06:17;;;;;;;7.93;1.33;;;;;;;;;;5009565;28;93562;-72
2022/05/29 09:08:48;;;;;;;5.05;1.25;;;;;;;;;;5013039;28;91677;-73
2022/05/29 09:11:20;;;;;;;9.15;2.10;;;;;;;;;;5010503;28;92725;-73
2022/05/29 09:13:50;;;;;;;5.15;1.90;;;;;;;;;;5007689;28;93233;-73
2022/05/29 09:16:18;;;;;;;6.97;1.25;;;;;;;;;;5010449;28;94842;-72
2022/05/29 09:19:02;;;;;;;4.82;1.13;;;;;;;;;;4997109;28;95517;-73
2022/05/29 09:21:54;;;;;;;4.95;1.08;;;;;;;;;;5015049;28;92534;-72
2022/05/29 09:24:32;;;;;;;3.30;1.10;;;;;;;;;;5027922;28;93310;-72
2022/05/29 09:26:58;;;;;;;6.88;1.17;;;;;;;;;;4996569;28;93457;-72
2022/05/29 09:29:25;;;;;;;1.80;0.93;;;;;;;;;;4998702;28;92439;-72
2022/05/29 09:31:51;;;;;;;5.10;1.58;;;;;;;;;;5015302;28;93175;-73
2022/05/29 09:34:17;;;;;;;3.63;0.90;;;;;;;;;;5015630;28;93975;-72
2022/05/29 09:37:02;;;;;;;3.03;0.77;;;;;;;;;;5014192;28;92558;-73
2022/05/29 09:39:33;;;;;;;3.60;0.75;;;;;;;;;;5013556;28;93187;-72
2022/05/29 09:42:03;;;;;;;4.70;0.60;;;;;;;;;;5012944;28;94857;-72
2022/05/29 09:44:30;;;;;;;4.85;0.60;;;;;;;;;;5008167;28;95532;-73
2022/05/29 09:49:40;;;;;;;1.70;0.65;;;;;;;;;;5015027;28;93687;-72
2022/05/29 09:49:45;;;;;;;4.32;1.23;;;;;;;;;;5009064;28;92375;-73
2022/05/29 09:52:11;;;;;;;9.35;1.00;;;;;;;;;;5014974;28;93976;-72
2022/05/29 09:54:57;;;;;;;1.88;0.80;;;;;;;;;;5016443;28;93253;-72
2022/05/29 09:57:25;;;;;;;4.97;1.02;;;;;;;;;;4970393;28;92617;-73
2022/05/29 10:00:06;;;;;;;2.78;0.98;;;;;;;;;;5013503;28;93172;-72
2022/05/29 10:02:40;;;;;;;6.60;1.13;;;;;;;;;;5016449;28;93434;-72
2022/05/29 10:05:09;;;;;;;4.63;1.10;;;;;;;;;;5017483;28;92477;-72
2022/05/29 10:07:42;;;;;;;5.05;1.73;;;;;;;;;;5021665;28;96332;-72
2022/05/29 10:10:13;;;;;;;5.10;1.25;;;;;;;;;;4980157;28;92517;-72
2022/05/29 10:12:44;;;;;;;7.93;1.63;;;;;;;;;;5003054;28;93176;-72
2022/05/29 10:15:13;;;;;;;5.03;1.25;;;;;;;;;;5009032;28;93472;-74
2022/05/29 10:17:40;;;;;;;6.00;1.10;;;;;;;;;;4996828;28;94297;-72
2022/05/29 10:20:25;;;;;;;6.65;1.75;;;;;;;;;;5015067;28;93245;-72
2022/05/29 10:22:55;;;;;;;8.05;1.85;;;;;;;;;;5002911;28;94572;-72
2022/05/29 10:25:25;;;;;;;8.52;1.50;;;;;;;;;;5020454;28;92086;-72
2022/05/29 10:27:52;;;;;;;;;;;;;;;;;;5016402;28;93770;-72
2022/05/29 10:30:38;;;;;;;5.55;1.30;;;;;;;;;;5014996;28;118014;-72
2022/05/29 10:33:07;;;;;;;8.35;2.10;;;;;;;;;;5010467;28;95301;-72
2022/05/29 10:35:35;;;;;;;10.60;1.85;;;;;;;;;;5015635;28;93615;-72
2022/05/29 10:38:15;;;;;;;8.75;1.80;;;;;;;;;;5015942;28;92370;-72
2022/05/29 10:40:42;;;;;;;7.25;1.88;;;;;;;;;;5012634;28;93157;-72
2022/05/29 10:43:09;;;;;;;9.95;1.48;;;;;;;;;;5014782;28;93843;-73
2022/05/29 10:45:43;;;;;;;6.28;1.50;;;;;;;;;;5013727;28;93818;-73
2022/05/29 10:48:29;;;;;;;7.70;1.88;;;;;;;;;;5013156;28;93710;-72
2022/05/29 10:51:01;;;;;;;8.38;1.58;;;;;;;;;;5007006;28;92295;-72
2022/05/29 10:53:36;;;;;;;10.55;1.50;;;;;;;;;;5004919;28;92554;-73
2022/05/29 10:56:14;;;;;;;7.18;1.83;;;;;;;;;;5013067;28;93725;-73
2022/05/29 10:58:59;;;;;;;10.50;1.75;;;;;;;;;;5014172;28;94817;-72
2022/05/29 11:04:20;;;;;;;9.90;1.80;;;;;;;;;;5015545;28;93408;-72
2022/05/29 11:06:59;;;;;;;14.45;2.20;;;;;;;;;;5014319;28;92389;-72
2022/05/29 11:09:31;;;;;;;7.95;1.75;;;;;;;;;;5010250;28;93343;-72
2022/05/29 11:12:16;;;;;;;7.93;1.45;;;;;;;;;;5009945;28;93994;-72
2022/05/29 11:15:01;;;;;;;12.18;1.75;;;;;;;;;;4988956;28;93058;-72
2022/05/29 11:17:46;;;;;;;11.90;2.13;;;;;;;;;;4986367;28;93082;-73
2022/05/29 11:20:17;;;;;;;7.35;1.83;;;;;;;;;;5013780;28;92550;-73
2022/05/29 11:22:43;;;;;;;;;;;;;;;;;;5015489;28;93486;-72
2022/05/29 11:25:18;;;;;;;7.10;1.83;;;;;;;;;;5016257;28;126536;-72
2022/05/29 11:27:51;;;;;;;14.32;2.28;;;;;;;;;;5015427;28;92405;-72
2022/05/29 11:30:17;;;;;;;9.77;1.70;;;;;;;;;;5013152;28;93238;-73
2022/05/29 11:32:43;;;;;;;9.05;1.52;;;;;;;;;;5009426;28;93728;-72
2022/05/29 11:35:27;;;;;;;15.25;2.33;;;;;;;;;;4987936;28;92533;-72
2022/05/29 11:37:58;;;;;;;8.02;1.60;;;;;;;;;;5013868;28;93442;-72
2022/05/29 11:40:33;;;;;;;13.38;2.08;;;;;;;;;;5014624;28;92502;-72
2022/05/29 11:43:18;;;;;;;9.60;1.33;;;;;;;;;;5011886;28;92960;-72
2022/05/29 11:51:36;;;;;;;7.88;1.30;;;;;;;;;;5012997;28;94736;-72
2022/05/29 11:54:02;;;;;;;4.65;1.30;;;;;;;;;;5014887;28;93880;-73
2022/05/29 11:56:31;;;;;;;8.65;1.27;;;;;;;;;;5013511;28;93000;-72
2022/05/29 11:59:01;;;;;;;8.57;1.30;;;;;;;;;;5016099;28;93075;-72
2022/05/29 12:01:31;;;;;;;8.82;1.10;;;;;;;;;;5013747;28;92401;-72
2022/05/29 12:04:01;;;;;;;4.85;1.15;;;;;;;;;;5013564;28;93079;-72
2022/05/29 12:06:30;;;;;;;8.73;0.98;;;;;;;;;;5012478;28;93725;-72
2022/05/29 12:09:15;;;;;;;6.30;0.90;;;;;;;;;;4988292;28;91733;-72
2022/05/29 12:11:43;;;;;;;5.70;1.30;;;;;;;;;;5008644;28;93186;-75
2022/05/29 12:14:18;;;;;;;9.77;1.58;;;;;;;;;;5008188;28;93754;-72
2022/05/29 12:16:47;;;;;;;6.78;0.93;;;;;;;;;;5011923;28;94845;-72
2022/05/29 12:19:16;;;;;;;11.05;1.40;;;;;;;;;;5016701;28;95407;-73
2022/05/29 12:22:01;;;;;;;3.92;1.27;;;;;;;;;;4996734;28;92457;-73
2022/05/29 12:24:34;;;;;;;4.53;1.27;;;;;;;;;;5008694;28;93846;-74
2022/05/29 12:27:19;;;;;;;9.30;1.25;;;;;;;;;;4990084;28;93424;-73
2022/05/29 12:29:51;;;;;;;4.97;1.13;;;;;;;;;;5010392;28;93497;-73
2022/05/29 12:32:19;;;;;;;8.68;2.03;;;;;;;;;;5013600;28;93136;-72
2022/05/29 12:35:07;;;;;;;11.18;1.65;;;;;;;;;;5014286;28;92790;-72
2022/05/29 12:37:52;;;;;;;6.38;1.30;;;;;;;;;;4990901;28;92487;-72
2022/05/29 12:40:25;;;;;;;4.88;1.23;;;;;;;;;;5007477;28;93005;-72
2022/05/29 12:43:10;;;;;;;7.57;1.17;;;;;;;;;;5013118;28;95912;-72
2022/05/29 12:45:53;;;;;;;9.90;2.28;;;;;;;;;;4995615;28;95446;-73
2022/05/29 12:48:38;;;;;;;7.30;1.27;;;;;;;;;;5004881;28;92582;-73
2022/05/29 12:51:22;;;;;;;8.35;1.77;;;;;;;;;;5011755;28;92426;-72
2022/05/29 12:53:58;;;;;;;4.72;1.05;;;;;;;;;;5012623;28;93556;-72
2022/05/29 12:56:40;;;;;;;3.88;1.00;;;;;;;;;;5016302;28;93687;-72
2022/05/29 12:59:14;;;;;;;3.20;0.75;;;;;;;;;;5012369;28;93516;-73
2022/05/29 13:01:49;;;;;;;8.02;1.40;;;;;;;;;;5009852;28;92939;-73
2022/05/29 13:04:28;;;;;;;6.15;0.98;;;;;;;;;;5014445;28;93221;-73
2022/05/29 13:07:15;;;;;;;7.15;1.45;;;;;;;;;;5013107;28;92574;-73
2022/05/29 13:10:00;;;;;;;4.03;1.00;;;;;;;;;;5015017;28;96308;-72
2022/05/29 13:12:40;;;;;;;4.20;1.08;;;;;;;;;;5016708;28;92871;-72
2022/05/29 13:15:08;;;;;;;5.28;1.30;;;;;;;;;;5014690;28;93609;-73
2022/05/29 13:17:35;;;;;;;9.20;1.40;;;;;;;;;;5015470;28;93633;-72
2022/05/29 13:20:08;;;;;;;5.07;1.13;;;;;;;;;;4995923;28;92449;-72
2022/05/29 13:22:48;;;;;;;5.45;0.80;;;;;;;;;;5004316;28;93410;-72
2022/05/29 13:25:16;;;;;;;6.28;1.17;;;;;;;;;;5001521;28;94637;-73
2022/05/29 13:27:42;;;;;;;2.33;0.82;;;;;;;;;;4992886;28;91802;-73
2022/05/29 13:30:28;;;;;;;5.50;0.90;;;;;;;;;;5030086;28;93510;-72
2022/05/29 13:33:13;;;;;;;2.42;0.70;;;;;;;;;;5015186;28;92698;-71
2022/05/29 13:35:41;;;;;;;9.88;1.38;;;;;;;;;;5012676;28;95037;-71
2022/05/29 13:38:07;;;;;;;4.30;0.90;;;;;;;;;;5003636;28;93669;-71
2022/05/29 13:40:38;;;;;;;4.85;1.20;;;;;;;;;;4997342;28;92358;-72
2022/05/29 13:43:14;;;;;;;3.30;0.90;;;;;;;;;;5008818;28;93456;-72
2022/05/29 13:45:43;;;;;;;7.20;1.30;;;;;;;;;;5014585;28;93342;-72
2022/05/29 13:48:26;;;;;;;6.30;1.20;;;;;;;;;;5011126;28;92604;-72
2022/05/29 13:51:21;;;;;;;4.13;1.00;;;;;;;;;;4996758;28;93226;-71
2022/05/29 13:53:55;;;;;;;5.70;1.27;;;;;;;;;;4997447;28;93236;-72
2022/05/29 13:56:41;;;;;;;7.00;1.10;;;;;;;;;;5015459;28;92454;-70
2022/05/29 14:04:54;;;;;;;6.90;1.20;;;;;;;;;;5013671;28;95860;-72
2022/05/29 14:07:22;;;;;;;9.07;1.45;;;;;;;;;;5015619;28;94034;-73
2022/05/29 14:10:04;;;;;;;3.72;1.30;;;;;;;;;;5010507;28;92424;-72
2022/05/29 14:12:47;;;;;;;3.10;0.93;;;;;;;;;;5015276;28;93151;-72
2022/05/29 14:15:31;;;;;;;8.45;1.50;;;;;;;;;;4986857;28;93242;-72
2022/05/29 14:18:00;;;;;;;5.70;1.00;;;;;;;;;;5019206;28;92424;-71
2022/05/29 14:20:35;;;;;;;2.80;0.90;;;;;;;;;;5014817;28;93223;-71
2022/05/29 14:23:21;;;;;;;10.95;1.45;;;;;;;;;;5002928;28;92513;-72
2022/05/29 14:26:01;;;;;;;5.45;0.90;;;;;;;;;;5004426;28;93025;-72
2022/05/29 14:28:33;;;;;;;3.65;0.82;;;;;;;;;;5007942;28;95807;-72
2022/05/29 14:31:16;;;;;;;3.17;0.88;;;;;;;;;;5015030;28;92504;-72
2022/05/29 14:33:43;;;;;;;2.80;0.65;;;;;;;;;;5000377;28;93278;-72
2022/05/29 14:36:15;;;;;;;7.03;0.82;;;;;;;;;;5008916;28;93813;-72
2022/05/29 14:39:00;;;;;;;2.78;0.80;;;;;;;;;;5017477;28;92857;-72
2022/05/29 14:41:30;;;;;;;3.92;0.85;;;;;;;;;;4996763;28;93470;-72
2022/05/29 14:44:15;;;;;;;6.00;1.23;;;;;;;;;;5012666;28;92803;-71
2022/05/29 14:47:02;;;;;;;2.50;0.70;;;;;;;;;;5001894;28;93096;-71
2022/05/29 14:49:34;;;;;;;3.30;0.80;;;;;;;;;;4980171;28;93275;-71
2022/05/29 14:52:03;;;;;;;8.98;1.10;;;;;;;;;;4991739;28;92688;-71
2022/05/29 14:54:44;;;;;;;4.80;1.20;;;;;;;;;;5009781;28;94928;-71
2022/05/29 14:57:31;;;;;;;6.70;1.45;;;;;;;;;;5015108;28;93956;-71
2022/05/29 14:59:59;;;;;;;3.17;1.10;;;;;;;;;;5014756;28;92677;-71
2022/05/29 15:02:29;;;;;;;3.55;1.10;;;;;;;;;;4996080;28;93848;-71
2022/05/29 15:05:01;;;;;;;9.30;1.23;;;;;;;;;;5013804;28;92544;-71
2022/05/29 15:10:30;;;;;;;4.00;0.80;;;;;;;;;;5013794;28;93522;-71
2022/05/29 15:13:11;;;;;;;4.80;1.00;;;;;;;;;;4997789;28;91746;-73
2022/05/29 15:15:46;;;;;;;7.57;1.95;;;;;;;;;;5013543;28;92330;-71
2022/05/29 15:18:14;;;;;;;6.97;1.20;;;;;;;;;;5014539;28;94901;-71
2022/05/29 15:26:24;;;;;;;7.50;1.45;;;;;;;;;;5004512;28;93548;-70
2022/05/29 15:28:51;;;;;;;7.72;1.17;;;;;;;;;;5013906;28;93204;-70
2022/05/29 15:31:22;;;;;;;7.72;1.75;;;;;;;;;;5014884;28;93535;-71
2022/05/29 15:34:02;;;;;;;6.78;1.30;;;;;;;;;;4992294;28;92610;-70
2022/05/29 15:36:41;;;;;;;6.82;1.15;;;;;;;;;;5014378;28;93295;-71
2022/05/29 15:39:13;;;;;;;8.70;1.67;;;;;;;;;;5014364;28;92799;-71
2022/05/29 15:42:23;;;;;;;5.72;1.65;;;;;;;;;;4997071;28;92555;-70
2022/05/29 15:44:59;;;;;;;8.02;1.50;;;;;;;;;;4933121;28;93304;-72
2022/05/29 15:47:37;;;;;;;11.05;1.30;;;;;;;;;;4914149;28;95845;-72
2022/05/29 15:50:16;;;;;;;9.15;1.33;;;;;;;;;;4940524;28;93636;-73
2022/05/29 15:53:07;;;;;;;11.68;1.60;;;;;;;;;;4932554;28;93929;-71
2022/05/29 15:55:42;;;;;;;6.88;1.30;;;;;;;;;;4932306;28;93114;-70
2022/05/29 15:58:11;;;;;;;5.30;1.35;;;;;;;;;;4934117;28;92982;-70